createdAt,value
2023-04-14T00:00:59.324Z,2.87
2023-04-14T00:03:26.227Z,3.13
2023-04-14T00:05:52.798Z,3.00
2023-04-14T00:08:19.372Z,3.17
2023-04-14T00:10:46.142Z,3.90
2023-04-14T00:13:12.715Z,3.93
2023-04-14T00:15:41.374Z,3.20
2023-04-14T00:18:08.082Z,2.30
2023-04-14T00:20:34.648Z,3.07
2023-04-14T00:23:01.200Z,2.97
2023-04-14T00:25:27.691Z,2.70
2023-04-14T00:27:54.261Z,3.23
2023-04-14T00:30:20.906Z,2.87
2023-04-14T00:32:47.449Z,2.97
2023-04-14T00:35:14.058Z,3.40
2023-04-14T00:37:40.652Z,4.13
2023-04-14T00:40:10.049Z,3.80
2023-04-14T00:42:46.694Z,3.70
2023-04-14T00:45:14.588Z,3.57
2023-04-14T00:47:46.871Z,3.17
2023-04-14T00:50:15.197Z,3.67
2023-04-14T00:52:42.889Z,3.63
2023-04-14T00:55:10.143Z,3.73
2023-04-14T00:57:36.595Z,4.13
2023-04-14T01:00:07.595Z,3.40
2023-04-14T01:02:35.014Z,4.30
2023-04-14T01:05:01.878Z,3.27
2023-04-14T01:07:29.286Z,4.70
2023-04-14T01:09:56.279Z,3.73
2023-04-14T01:12:40.099Z,4.10
2023-04-14T01:15:18.573Z,3.97
2023-04-14T01:17:48.011Z,3.97
2023-04-14T01:20:24.667Z,3.80
2023-04-14T01:22:59.928Z,4.70
2023-04-14T01:25:48.297Z,4.53
2023-04-14T01:28:38.537Z,4.20
2023-04-14T01:31:33.292Z,4.03
2023-04-14T01:34:09.221Z,5.50
2023-04-14T01:36:50.505Z,5.10
2023-04-14T01:39:20.454Z,4.00
2023-04-14T01:41:50.064Z,5.40
2023-04-14T01:44:19.258Z,4.43
2023-04-14T01:46:47.194Z,4.10
2023-04-14T01:49:13.970Z,4.60
2023-04-14T01:51:42.177Z,4.70
2023-04-14T01:54:09.453Z,4.80
2023-04-14T01:56:38.596Z,4.63
2023-04-14T01:59:06.001Z,5.37
2023-04-14T02:01:34.011Z,4.70
2023-04-14T02:04:02.123Z,6.37
2023-04-14T02:06:31.974Z,3.97
2023-04-14T02:09:02.673Z,4.60
2023-04-14T02:11:30.781Z,5.83
2023-04-14T02:13:58.856Z,4.90
2023-04-14T02:16:26.051Z,5.50
2023-04-14T02:18:52.601Z,5.40
2023-04-14T02:21:20.889Z,5.00
2023-04-14T02:23:47.430Z,5.10
2023-04-14T02:26:16.533Z,4.07
2023-04-14T02:29:09.598Z,4.63
2023-04-14T02:31:41.153Z,4.40
2023-04-14T02:34:09.471Z,4.27
2023-04-14T02:36:52.898Z,4.43
2023-04-14T02:39:37.319Z,4.10
2023-04-14T02:42:10.910Z,3.90
2023-04-14T02:44:44.115Z,5.77
2023-04-14T02:47:11.799Z,5.03
2023-04-14T02:49:41.424Z,4.30
2023-04-14T02:52:10.748Z,5.37
2023-04-14T02:54:40.092Z,5.33
2023-04-14T02:57:07.085Z,4.80
2023-04-14T02:59:33.811Z,4.40
2023-04-14T03:02:03.115Z,4.63
2023-04-14T03:04:34.573Z,5.00
2023-04-14T03:07:02.188Z,4.97
2023-04-14T03:09:30.072Z,5.00
2023-04-14T03:11:57.123Z,5.80
2023-04-14T03:14:23.852Z,4.80
2023-04-14T03:16:54.365Z,5.83
2023-04-14T03:19:25.004Z,5.40
2023-04-14T03:21:53.947Z,5.10
2023-04-14T03:24:24.582Z,6.17
2023-04-14T03:26:58.873Z,5.77
2023-04-14T03:29:27.724Z,5.50
2023-04-14T03:31:56.011Z,5.23
2023-04-14T03:34:25.193Z,5.00
2023-04-14T03:36:54.714Z,6.03
2023-04-14T03:39:22.400Z,6.40
2023-04-14T03:41:51.763Z,6.60
2023-04-14T03:44:19.172Z,6.43
2023-04-14T03:46:46.139Z,5.50
2023-04-14T03:49:15.305Z,6.57
2023-04-14T03:51:42.277Z,5.50
2023-04-14T03:54:10.191Z,5.67
2023-04-14T03:56:40.353Z,6.47
2023-04-14T03:59:11.584Z,6.47
2023-04-14T04:01:39.672Z,6.27
2023-04-14T04:04:07.755Z,6.37
2023-04-14T04:06:36.796Z,6.07
2023-04-14T04:09:05.412Z,5.37
2023-04-14T04:11:34.350Z,4.80
2023-04-14T04:14:02.166Z,5.33
2023-04-14T04:16:28.990Z,4.77
2023-04-14T04:18:55.881Z,5.63
2023-04-14T04:21:23.002Z,5.17
2023-04-14T04:23:52.867Z,5.00
2023-04-14T04:26:19.664Z,4.77
2023-04-14T04:28:46.962Z,5.07
2023-04-14T04:31:14.555Z,5.00
2023-04-14T04:33:41.470Z,5.40
2023-04-14T04:36:08.276Z,4.80
2023-04-14T04:38:34.930Z,5.07
2023-04-14T04:41:01.446Z,6.13
2023-04-14T04:43:27.986Z,6.30
2023-04-14T04:46:30.887Z,5.67
2023-04-14T04:48:57.703Z,5.90
2023-04-14T04:51:24.441Z,5.53
2023-04-14T04:53:50.896Z,6.20
2023-04-14T04:56:17.337Z,5.23
2023-04-14T04:58:44.316Z,4.60
2023-04-14T05:01:11.672Z,5.50
2023-04-14T05:03:38.774Z,5.00
2023-04-14T05:06:05.935Z,5.03
2023-04-14T05:08:32.701Z,5.03
2023-04-14T05:10:59.292Z,5.00
2023-04-14T05:13:25.933Z,5.67
2023-04-14T05:15:52.478Z,6.50
2023-04-14T05:18:19.585Z,5.90
2023-04-14T05:20:46.474Z,6.07
2023-04-14T05:23:13.505Z,6.30
2023-04-14T05:25:40.180Z,5.30
2023-04-14T05:28:06.780Z,5.27
2023-04-14T05:30:33.548Z,5.90
2023-04-14T05:33:00.428Z,5.20
2023-04-14T05:35:27.014Z,5.50
2023-04-14T05:37:53.652Z,5.80
2023-04-14T05:40:22.124Z,4.77
2023-04-14T05:42:48.636Z,5.70
2023-04-14T05:45:15.496Z,5.00
2023-04-14T05:47:42.047Z,5.13
2023-04-14T05:50:08.923Z,5.10
2023-04-14T05:52:35.399Z,5.23
2023-04-14T05:55:02.046Z,5.97
2023-04-14T05:57:28.540Z,5.53
2023-04-14T05:59:57.604Z,5.70
2023-04-14T06:02:24.914Z,5.73
2023-04-14T06:04:51.750Z,5.53
2023-04-14T06:07:18.412Z,4.47
2023-04-14T06:09:46.532Z,5.50
2023-04-14T06:12:14.456Z,5.10
2023-04-14T06:14:41.002Z,6.00
2023-04-14T06:17:07.505Z,6.30
2023-04-14T06:19:33.998Z,5.90
2023-04-14T06:22:00.493Z,6.30
2023-04-14T06:24:26.979Z,5.97
2023-04-14T06:26:53.792Z,6.10
2023-04-14T06:29:20.288Z,6.20
2023-04-14T06:31:46.994Z,4.80
2023-04-14T06:34:13.568Z,5.90
2023-04-14T06:36:40.325Z,5.57
2023-04-14T06:39:06.998Z,5.10
2023-04-14T06:41:33.642Z,6.10
2023-04-14T06:44:00.224Z,5.00
2023-04-14T06:46:26.934Z,5.20
2023-04-14T06:48:53.633Z,4.97
2023-04-14T06:51:20.247Z,6.73
2023-04-14T06:53:46.799Z,10.10
2023-04-14T06:56:13.450Z,6.67
2023-04-14T06:58:40.446Z,7.73
2023-04-14T07:01:07.272Z,9.87
2023-04-14T07:03:34.614Z,8.30
2023-04-14T07:06:10.640Z,7.77
2023-04-14T07:08:38.710Z,8.37
2023-04-14T07:11:08.403Z,8.00
2023-04-14T07:13:35.781Z,7.13
2023-04-14T07:16:03.180Z,6.50
2023-04-14T07:18:31.703Z,8.03
2023-04-14T07:20:59.638Z,7.93
2023-04-14T07:23:26.659Z,7.47
2023-04-14T07:25:58.171Z,8.33
2023-04-14T07:28:25.588Z,8.07
2023-04-14T07:30:53.339Z,7.80
2023-04-14T07:33:22.057Z,7.20
2023-04-14T07:36:02.040Z,7.10
2023-04-14T07:38:29.765Z,9.83
2023-04-14T07:40:56.541Z,7.67
2023-04-14T07:43:23.900Z,8.47
2023-04-14T07:45:52.046Z,8.17
2023-04-14T07:48:21.741Z,10.00
2023-04-14T07:50:50.030Z,10.80
2023-04-14T07:53:16.608Z,13.00
2023-04-14T07:55:43.214Z,11.90
2023-04-14T07:58:15.121Z,10.10
2023-04-14T08:00:42.325Z,13.00
2023-04-14T08:03:10.009Z,15.90
2023-04-14T08:05:37.065Z,16.37
2023-04-14T08:08:03.711Z,14.97
2023-04-14T08:10:30.341Z,13.37
2023-04-14T08:12:56.857Z,13.70
2023-04-14T08:15:23.452Z,12.83
2023-04-14T08:17:50.200Z,12.30
2023-04-14T08:20:17.357Z,14.43
2023-04-14T08:22:43.826Z,12.27
2023-04-14T08:25:12.236Z,12.87
2023-04-14T08:27:39.032Z,16.50
2023-04-14T08:30:06.372Z,12.67
2023-04-14T08:32:33.858Z,12.90
2023-04-14T08:35:40.054Z,14.40
2023-04-14T08:37:47.153Z,12.30
2023-04-14T08:40:14.661Z,13.30
2023-04-14T08:42:41.142Z,12.80
2023-04-14T08:45:08.362Z,12.13
2023-04-14T08:47:36.739Z,14.13
2023-04-14T08:50:07.288Z,14.03
2023-04-14T08:52:40.469Z,15.17
2023-04-14T08:55:08.345Z,12.90
2023-04-14T08:57:35.243Z,12.63
2023-04-14T09:00:05.025Z,13.07
2023-04-14T09:02:35.197Z,12.53
2023-04-14T09:05:02.273Z,13.87
2023-04-14T09:07:30.140Z,13.30
2023-04-14T09:09:57.715Z,12.23
2023-04-14T09:12:28.716Z,12.00
2023-04-14T09:14:57.156Z,15.57
2023-04-14T09:17:24.146Z,12.83
2023-04-14T09:20:35.295Z,12.93
2023-04-14T09:22:37.754Z,10.70
2023-04-14T09:25:05.145Z,12.30
2023-04-14T09:27:31.668Z,12.77
2023-04-14T09:29:58.645Z,11.17
2023-04-14T09:32:25.995Z,10.00
2023-04-14T09:34:56.367Z,12.53
2023-04-14T09:37:24.347Z,11.93
2023-04-14T09:39:52.307Z,11.50
2023-04-14T09:42:19.069Z,10.13
2023-04-14T09:44:59.137Z,8.77
2023-04-14T09:47:26.532Z,10.97
2023-04-14T09:50:04.388Z,11.07
2023-04-14T09:52:42.096Z,12.30
2023-04-14T09:55:12.995Z,11.87
2023-04-14T09:57:43.557Z,10.67
2023-04-14T10:00:16.382Z,10.00
2023-04-14T10:02:49.985Z,9.37
2023-04-14T10:05:19.469Z,7.70
2023-04-14T10:07:46.560Z,7.60
2023-04-14T10:10:13.821Z,9.53
2023-04-14T10:12:46.995Z,7.83
2023-04-14T10:15:14.960Z,9.20
2023-04-14T10:17:45.642Z,7.60
2023-04-14T10:20:12.160Z,8.73
2023-04-14T10:22:40.861Z,8.10
2023-04-14T10:25:08.315Z,8.97
2023-04-14T10:27:35.628Z,8.40
2023-04-14T10:30:02.463Z,8.40
2023-04-14T10:32:32.023Z,7.97
2023-04-14T10:35:07.101Z,8.80
2023-04-14T10:37:33.716Z,10.73
2023-04-14T10:40:01.408Z,8.40
2023-04-14T10:42:32.840Z,7.40
2023-04-14T10:45:05.917Z,8.60
2023-04-14T10:47:34.454Z,8.93
2023-04-14T10:50:11.890Z,9.30
2023-04-14T10:52:39.360Z,8.20
2023-04-14T10:55:11.642Z,8.23
2023-04-14T10:57:42.547Z,7.97
2023-04-14T11:00:28.923Z,7.50
2023-04-14T11:03:03.383Z,8.00
2023-04-14T11:05:34.054Z,9.33
2023-04-14T11:08:03.180Z,8.07
2023-04-14T11:10:32.969Z,8.20
2023-04-14T11:13:08.505Z,7.13
2023-04-14T11:15:52.081Z,7.10
2023-04-14T11:18:37.559Z,7.23
2023-04-14T11:21:10.762Z,7.57
2023-04-14T11:23:37.939Z,6.50
2023-04-14T11:26:09.368Z,5.60
2023-04-14T11:28:38.638Z,4.50
2023-04-14T11:31:06.769Z,4.77
2023-04-14T11:33:35.958Z,5.33
2023-04-14T11:36:03.937Z,5.53
2023-04-14T11:38:31.591Z,5.30
2023-04-14T11:40:58.194Z,5.40
2023-04-14T11:43:25.133Z,4.60
2023-04-14T11:45:52.433Z,4.80
2023-04-14T11:48:20.323Z,4.70
2023-04-14T11:50:48.039Z,5.60
2023-04-14T11:53:20.381Z,5.77
2023-04-14T11:55:51.973Z,5.43
2023-04-14T11:58:24.663Z,5.93
2023-04-14T12:00:54.983Z,5.30
2023-04-14T12:03:28.036Z,6.20
2023-04-14T12:06:00.707Z,5.50
2023-04-14T12:08:30.158Z,5.90
2023-04-14T12:10:57.733Z,5.50
2023-04-14T12:13:24.862Z,5.37
2023-04-14T12:15:51.535Z,4.97
2023-04-14T12:20:54.219Z,5.00
2023-04-14T12:23:20.995Z,5.10
2023-04-14T12:25:50.643Z,6.60
2023-04-14T12:28:29.756Z,5.97
2023-04-14T12:30:59.238Z,5.00
2023-04-14T12:33:29.347Z,5.00
2023-04-14T12:36:12.042Z,5.40
2023-04-14T12:38:38.599Z,6.80
2023-04-14T12:41:05.564Z,5.73
2023-04-14T12:43:34.810Z,4.90
2023-04-14T12:46:03.985Z,6.03
2023-04-14T12:48:45.959Z,5.00
2023-04-14T12:51:17.487Z,4.93
2023-04-14T12:53:45.141Z,4.80
2023-04-14T12:56:16.833Z,36.60
2023-04-14T12:58:46.931Z,6.40
2023-04-14T13:01:16.689Z,6.20
2023-04-14T13:03:56.141Z,5.17
2023-04-14T13:06:24.420Z,5.37
2023-04-14T13:08:55.367Z,5.40
2023-04-14T13:11:23.483Z,5.97
2023-04-14T13:13:51.168Z,5.90
2023-04-14T13:16:18.798Z,5.73
2023-04-14T13:18:47.307Z,6.87
2023-04-14T13:21:14.166Z,7.00
2023-04-14T13:23:41.160Z,7.80
2023-04-14T13:26:07.816Z,7.33
2023-04-14T13:28:34.392Z,5.90
2023-04-14T13:31:01.178Z,5.23
2023-04-14T13:33:27.718Z,4.27
2023-04-14T13:35:55.887Z,5.47
2023-04-14T13:38:22.628Z,4.67
2023-04-14T13:40:49.374Z,5.00
2023-04-14T13:43:18.218Z,5.80
2023-04-14T13:45:44.966Z,6.90
2023-04-14T13:48:11.631Z,6.00
2023-04-14T13:50:38.252Z,5.30
2023-04-14T13:53:04.892Z,6.23
2023-04-14T13:55:31.464Z,4.90
2023-04-14T13:57:58.123Z,4.20
2023-04-14T14:00:24.755Z,4.70
2023-04-14T14:02:52.270Z,3.97
2023-04-14T14:05:19.142Z,5.20
2023-04-14T14:07:45.778Z,5.57
2023-04-14T14:10:18.215Z,6.30
2023-04-14T14:12:44.901Z,4.87
2023-04-14T14:15:12.428Z,5.10
2023-04-14T14:17:39.020Z,5.63
2023-04-14T14:20:07.551Z,5.50
2023-04-14T14:22:34.023Z,4.20
2023-04-14T14:25:15.188Z,4.93
2023-04-14T14:27:45.584Z,4.07
2023-04-14T14:30:12.637Z,4.13
2023-04-14T14:32:39.260Z,7.30
2023-04-14T14:35:06.209Z,6.67
2023-04-14T14:37:32.771Z,6.00
2023-04-14T14:39:59.264Z,7.80
2023-04-14T14:42:27.163Z,4.20
2023-04-14T14:44:53.866Z,3.27
2023-04-14T14:47:20.754Z,33.47
2023-04-14T14:49:58.864Z,7.33
2023-04-14T14:52:36.387Z,5.47
2023-04-14T14:55:03.548Z,5.57
2023-04-14T14:57:30.671Z,4.97
2023-04-14T14:59:57.391Z,47.77
2023-04-14T15:02:25.079Z,10.60
2023-04-14T15:04:52.192Z,4.83
2023-04-14T15:07:18.769Z,15.40
2023-04-14T15:09:49.578Z,8.87
2023-04-14T15:12:16.453Z,7.40
2023-04-14T15:14:43.085Z,7.20
2023-04-14T15:17:24.797Z,4.17
2023-04-14T15:19:51.473Z,8.30
2023-04-14T15:22:35.573Z,7.00
2023-04-14T15:25:15.807Z,6.60
2023-04-14T15:27:42.366Z,6.10
2023-04-14T15:30:12.168Z,11.40
2023-04-14T15:32:50.342Z,9.30
2023-04-14T15:35:16.999Z,5.80
2023-04-14T15:37:43.619Z,5.27
2023-04-14T15:40:10.809Z,6.20
2023-04-14T15:42:37.625Z,6.00
2023-04-14T15:45:05.589Z,6.13
2023-04-14T15:47:32.176Z,5.67
2023-04-14T15:50:09.288Z,6.23
2023-04-14T15:52:36.194Z,7.10
2023-04-14T15:55:02.783Z,6.00
2023-04-14T15:57:29.349Z,6.07
2023-04-14T15:59:56.651Z,5.80
2023-04-14T16:02:23.351Z,6.23
2023-04-14T16:04:50.038Z,6.67
2023-04-14T16:07:16.995Z,6.07
2023-04-14T16:09:43.517Z,6.07
2023-04-14T16:12:10.117Z,4.80
2023-04-14T16:14:37.624Z,6.90
2023-04-14T16:17:04.158Z,6.47
2023-04-14T16:19:30.972Z,6.77
2023-04-14T16:21:57.552Z,8.13
2023-04-14T16:24:24.580Z,8.80
2023-04-14T16:26:51.104Z,8.10
2023-04-14T16:29:17.652Z,7.83
2023-04-14T16:31:45.555Z,8.30
2023-04-14T16:34:12.400Z,21.30
2023-04-14T16:36:39.312Z,11.53
2023-04-14T16:39:06.338Z,14.83
2023-04-14T16:41:33.383Z,8.90
2023-04-14T16:44:00.823Z,8.70
2023-04-14T16:46:27.791Z,14.70
2023-04-14T16:48:54.323Z,11.20
2023-04-14T16:51:21.130Z,8.20
2023-04-14T16:53:48.734Z,7.93
2023-04-14T16:56:15.839Z,8.57
2023-04-14T16:58:42.298Z,9.13
2023-04-14T17:01:09.377Z,8.83
2023-04-14T17:03:36.818Z,8.03
2023-04-14T17:06:03.902Z,8.83
2023-04-14T17:08:30.511Z,7.40
2023-04-14T17:10:57.309Z,7.13
2023-04-14T17:13:23.905Z,6.47
2023-04-14T17:15:58.892Z,9.30
2023-04-14T17:18:33.571Z,11.23
2023-04-14T17:21:00.248Z,11.97
2023-04-14T17:23:27.412Z,10.70
2023-04-14T17:25:55.086Z,9.80
2023-04-14T17:28:22.879Z,11.40
2023-04-14T17:30:50.047Z,10.00
2023-04-14T17:33:17.499Z,9.50
2023-04-14T17:35:44.222Z,14.30
2023-04-14T17:38:10.752Z,9.73
2023-04-14T17:40:37.422Z,9.33
2023-04-14T17:43:04.628Z,10.60
2023-04-14T17:45:31.560Z,14.13
2023-04-14T17:47:58.354Z,12.40
2023-04-14T17:50:25.472Z,10.60
2023-04-14T17:52:52.664Z,11.47
2023-04-14T17:55:19.266Z,10.83
2023-04-14T17:57:46.361Z,9.53
2023-04-14T18:00:13.232Z,9.10
2023-04-14T18:02:41.250Z,8.03
2023-04-14T18:05:09.288Z,8.83
2023-04-14T18:07:36.927Z,10.80
2023-04-14T18:10:03.746Z,9.10
2023-04-14T18:12:30.949Z,11.50
2023-04-14T18:14:57.500Z,10.90
2023-04-14T18:17:24.668Z,12.00
2023-04-14T18:19:51.451Z,11.60
2023-04-14T18:22:18.431Z,10.40
2023-04-14T18:29:43.905Z,11.07
2023-04-14T18:32:10.621Z,13.03
2023-04-14T18:34:37.306Z,11.90
2023-04-14T18:37:04.120Z,9.40
2023-04-14T18:39:35.727Z,12.73
2023-04-14T18:42:03.384Z,22.10
2023-04-14T18:44:30.128Z,20.43
2023-04-14T18:46:56.983Z,15.50
2023-04-14T18:49:23.763Z,12.73
2023-04-14T18:51:50.874Z,9.80
2023-04-14T18:54:17.728Z,9.30
2023-04-14T18:56:44.435Z,8.70
2023-04-14T18:59:11.314Z,13.10
2023-04-14T19:01:37.915Z,11.30
2023-04-14T19:04:05.958Z,10.23
2023-04-14T19:06:32.688Z,8.43
2023-04-14T19:09:01.130Z,7.93
2023-04-14T19:11:28.177Z,8.13
2023-04-14T19:13:54.795Z,9.47
2023-04-14T19:16:22.894Z,7.30
2023-04-14T19:18:49.357Z,14.17
2023-04-14T19:21:16.353Z,14.70
2023-04-14T19:23:43.283Z,18.07
2023-04-14T19:26:11.578Z,13.13
2023-04-14T19:28:43.452Z,14.40
2023-04-14T19:31:10.189Z,12.40
2023-04-14T19:33:37.733Z,13.93
2023-04-14T19:36:14.277Z,15.03
2023-04-14T19:38:41.363Z,13.60
2023-04-14T19:41:09.615Z,13.07
2023-04-14T19:43:36.595Z,12.10
2023-04-14T19:46:04.779Z,11.47
2023-04-14T19:48:38.353Z,14.03
2023-04-14T19:51:05.068Z,14.87
2023-04-14T19:53:31.868Z,16.53
2023-04-14T19:55:58.715Z,14.97
2023-04-14T19:58:26.815Z,16.00
2023-04-14T20:00:57.375Z,13.87
2023-04-14T20:03:24.874Z,14.80
2023-04-14T20:05:56.776Z,14.47
2023-04-14T20:08:24.493Z,14.10
2023-04-14T20:10:53.250Z,14.40
2023-04-14T20:13:21.409Z,13.67
2023-04-14T20:15:49.295Z,18.77
2023-04-14T20:18:17.936Z,17.67
2023-04-14T20:20:45.940Z,15.13
2023-04-14T20:23:12.580Z,11.63
2023-04-14T20:25:39.343Z,12.33
2023-04-14T20:28:06.487Z,12.63
2023-04-14T20:30:33.471Z,12.13
2023-04-14T20:33:03.632Z,11.20
2023-04-14T20:35:30.909Z,11.60
2023-04-14T20:37:57.573Z,11.77
2023-04-14T20:40:24.156Z,13.20
2023-04-14T20:42:50.723Z,13.40
2023-04-14T20:45:17.439Z,11.90
2023-04-14T20:47:44.156Z,9.60
2023-04-14T20:50:10.776Z,9.47
2023-04-14T20:52:37.437Z,11.27
2023-04-14T20:55:04.367Z,9.20
2023-04-14T20:57:30.954Z,9.27
2023-04-14T20:59:57.565Z,9.70
2023-04-14T21:02:24.321Z,10.10
2023-04-14T21:04:51.517Z,12.10
2023-04-14T21:07:18.133Z,10.70
2023-04-14T21:09:44.871Z,9.00
2023-04-14T21:12:16.040Z,8.50
2023-04-14T21:15:42.148Z,9.90
2023-04-14T21:17:30.300Z,11.80
2023-04-14T21:19:56.912Z,11.90
2023-04-14T21:22:23.599Z,10.83
2023-04-14T21:24:50.843Z,9.60
2023-04-14T21:27:17.598Z,12.53
2023-04-14T21:29:44.668Z,13.00
2023-04-14T21:32:11.458Z,13.47
2023-04-14T21:34:38.469Z,10.83
2023-04-14T21:37:05.357Z,12.70
2023-04-14T21:39:33.779Z,13.40
2023-04-14T21:42:01.425Z,13.90
2023-04-14T21:44:28.154Z,14.50
2023-04-14T21:46:55.373Z,15.07
2023-04-14T21:49:22.589Z,11.73
2023-04-14T21:51:52.594Z,14.77
2023-04-14T21:54:19.249Z,11.60
2023-04-14T21:56:45.736Z,12.60
2023-04-14T21:59:12.556Z,12.57
2023-04-14T22:01:39.905Z,11.83
2023-04-14T22:04:06.693Z,17.87
2023-04-14T22:06:35.328Z,15.37
2023-04-14T22:09:02.608Z,14.10
2023-04-14T22:11:30.882Z,13.83
2023-04-14T22:13:58.208Z,15.20
2023-04-14T22:16:25.583Z,14.10
2023-04-14T22:18:52.385Z,12.53
2023-04-14T22:21:18.927Z,15.80
2023-04-14T22:23:45.474Z,12.90
2023-04-14T22:26:13.472Z,16.73
2023-04-14T22:28:41.018Z,14.20
2023-04-14T22:31:07.831Z,14.00
2023-04-14T22:33:35.383Z,13.97
2023-04-14T22:36:05.663Z,13.50
2023-04-14T22:38:33.761Z,12.70
2023-04-14T22:41:01.907Z,11.77
2023-04-14T22:43:29.942Z,11.20
2023-04-14T22:45:56.806Z,13.20
2023-04-14T22:48:23.364Z,12.90
2023-04-14T22:50:49.894Z,11.63
2023-04-14T22:53:16.443Z,12.27
2023-04-14T22:55:43.763Z,9.50
2023-04-14T22:58:16.540Z,11.47
2023-04-14T23:00:46.254Z,11.07
2023-04-14T23:03:13.946Z,9.07
2023-04-14T23:05:40.668Z,9.37
2023-04-14T23:08:07.532Z,9.60
2023-04-14T23:10:34.082Z,10.27
2023-04-14T23:13:01.131Z,11.80
2023-04-14T23:15:27.708Z,10.37
2023-04-14T23:17:54.437Z,10.00
2023-04-14T23:20:21.948Z,11.40
2023-04-14T23:22:48.520Z,11.67
2023-04-14T23:25:15.720Z,12.30
2023-04-14T23:27:42.742Z,11.23
2023-04-14T23:30:10.324Z,11.20
2023-04-14T23:32:37.334Z,12.00
2023-04-14T23:35:04.645Z,9.83
2023-04-14T23:37:31.287Z,8.60
2023-04-14T23:39:58.242Z,9.20
2023-04-14T23:42:24.758Z,10.80
2023-04-14T23:44:51.563Z,10.33
2023-04-14T23:47:18.345Z,8.47
2023-04-14T23:49:44.922Z,11.50
2023-04-14T23:52:12.047Z,9.90
2023-04-14T23:54:38.929Z,11.00
2023-04-14T23:57:05.513Z,11.93
2023-04-14T23:59:32.160Z,18.23
